sensor_id;sensor_type;location;lat;lon;timestamp;P1;durP1;ratioP1;P2;durP2;ratioP2
1354;SDS011;671;48.972;9.276;2024-03-22T00:01:51;0.40;;;0.40;;
1354;SDS011;671;48.972;9.276;2024-03-22T00:04:18;0.40;;;0.40;;
1354;SDS011;671;48.972;9.276;2024-03-22T00:06:46;0.40;;;0.40;;
1354;SDS011;671;48.972;9.276;2024-03-22T00:09:13;0.30;;;0.30;;
1354;SDS011;671;48.972;9.276;2024-03-22T00:11:41;0.40;;;0.40;;
1354;SDS011;671;48.972;9.276;2024-03-22T00:14:08;0.40;;;0.40;;
1354;SDS011;671;48.972;9.276;2024-03-22T00:16:36;0.50;;;0.50;;
1354;SDS011;671;48.972;9.276;2024-03-22T00:19:03;0.33;;;0.30;;
1354;SDS011;671;48.972;9.276;2024-03-22T00:21:30;0.57;;;0.57;;
1354;SDS011;671;48.972;9.276;2024-03-22T00:23:57;0.40;;;0.30;;
1354;SDS011;671;48.972;9.276;2024-03-22T00:26:24;0.50;;;0.50;;
1354;SDS011;671;48.972;9.276;2024-03-22T00:28:50;0.60;;;0.60;;
1354;SDS011;671;48.972;9.276;2024-03-22T00:31:17;0.40;;;0.40;;
1354;SDS011;671;48.972;9.276;2024-03-22T00:33:44;0.50;;;0.50;;
1354;SDS011;671;48.972;9.276;2024-03-22T00:36:10;0.60;;;0.60;;
1354;SDS011;671;48.972;9.276;2024-03-22T00:38:37;0.40;;;0.40;;
1354;SDS011;671;48.972;9.276;2024-03-22T00:41:03;0.40;;;0.40;;
1354;SDS011;671;48.972;9.276;2024-03-22T00:43:30;0.30;;;0.30;;
1354;SDS011;671;48.972;9.276;2024-03-22T00:45:56;0.50;;;0.50;;
1354;SDS011;671;48.972;9.276;2024-03-22T00:48:24;0.50;;;0.50;;
1354;SDS011;671;48.972;9.276;2024-03-22T00:50:50;0.40;;;0.40;;
1354;SDS011;671;48.972;9.276;2024-03-22T00:53:17;0.30;;;0.30;;
1354;SDS011;671;48.972;9.276;2024-03-22T00:55:43;0.30;;;0.30;;
1354;SDS011;671;48.972;9.276;2024-03-22T00:58:10;0.40;;;0.40;;
1354;SDS011;671;48.972;9.276;2024-03-22T01:00:36;0.40;;;0.40;;
1354;SDS011;671;48.972;9.276;2024-03-22T01:03:03;0.30;;;0.30;;
1354;SDS011;671;48.972;9.276;2024-03-22T01:05:30;0.50;;;0.50;;
1354;SDS011;671;48.972;9.276;2024-03-22T01:07:56;0.30;;;0.30;;
1354;SDS011;671;48.972;9.276;2024-03-22T01:10:23;0.40;;;0.40;;
1354;SDS011;671;48.972;9.276;2024-03-22T01:12:49;0.40;;;0.40;;
1354;SDS011;671;48.972;9.276;2024-03-22T01:15:16;0.40;;;0.40;;
1354;SDS011;671;48.972;9.276;2024-03-22T01:17:42;0.50;;;0.50;;
1354;SDS011;671;48.972;9.276;2024-03-22T01:20:09;0.47;;;0.47;;
1354;SDS011;671;48.972;9.276;2024-03-22T01:22:36;0.40;;;0.40;;
1354;SDS011;671;48.972;9.276;2024-03-22T01:25:03;0.43;;;0.43;;
1354;SDS011;671;48.972;9.276;2024-03-22T01:27:29;0.50;;;0.50;;
1354;SDS011;671;48.972;9.276;2024-03-22T01:29:56;0.50;;;0.50;;
1354;SDS011;671;48.972;9.276;2024-03-22T01:32:22;0.40;;;0.30;;
1354;SDS011;671;48.972;9.276;2024-03-22T01:34:49;0.60;;;0.60;;
1354;SDS011;671;48.972;9.276;2024-03-22T01:37:15;0.40;;;0.40;;
1354;SDS011;671;48.972;9.276;2024-03-22T01:39:41;0.40;;;0.40;;
1354;SDS011;671;48.972;9.276;2024-03-22T01:42:08;0.47;;;0.47;;
1354;SDS011;671;48.972;9.276;2024-03-22T01:44:34;0.40;;;0.40;;
1354;SDS011;671;48.972;9.276;2024-03-22T01:47:01;0.40;;;0.40;;
1354;SDS011;671;48.972;9.276;2024-03-22T01:49:28;0.30;;;0.30;;
1354;SDS011;671;48.972;9.276;2024-03-22T01:51:55;0.40;;;0.40;;
1354;SDS011;671;48.972;9.276;2024-03-22T01:54:22;0.40;;;0.40;;
1354;SDS011;671;48.972;9.276;2024-03-22T01:56:49;0.30;;;0.30;;
1354;SDS011;671;48.972;9.276;2024-03-22T01:59:15;0.40;;;0.40;;
1354;SDS011;671;48.972;9.276;2024-03-22T02:01:42;0.50;;;0.50;;
1354;SDS011;671;48.972;9.276;2024-03-22T02:04:09;0.33;;;0.33;;
1354;SDS011;671;48.972;9.276;2024-03-22T02:06:36;0.40;;;0.40;;
1354;SDS011;671;48.972;9.276;2024-03-22T02:09:02;0.40;;;0.40;;
1354;SDS011;671;48.972;9.276;2024-03-22T02:11:30;0.33;;;0.33;;
1354;SDS011;671;48.972;9.276;2024-03-22T02:13:57;0.30;;;0.30;;
1354;SDS011;671;48.972;9.276;2024-03-22T02:16:24;0.40;;;0.40;;
1354;SDS011;671;48.972;9.276;2024-03-22T02:18:50;0.30;;;0.30;;
1354;SDS011;671;48.972;9.276;2024-03-22T02:21:17;0.43;;;0.43;;
1354;SDS011;671;48.972;9.276;2024-03-22T02:23:43;0.30;;;0.30;;
1354;SDS011;671;48.972;9.276;2024-03-22T02:26:09;0.40;;;0.40;;
1354;SDS011;671;48.972;9.276;2024-03-22T02:28:36;0.30;;;0.30;;
1354;SDS011;671;48.972;9.276;2024-03-22T02:31:03;0.50;;;0.50;;
1354;SDS011;671;48.972;9.276;2024-03-22T02:33:29;0.30;;;0.30;;
1354;SDS011;671;48.972;9.276;2024-03-22T02:35:56;0.30;;;0.30;;
1354;SDS011;671;48.972;9.276;2024-03-22T02:38:23;0.33;;;0.33;;
1354;SDS011;671;48.972;9.276;2024-03-22T02:40:51;0.37;;;0.37;;
1354;SDS011;671;48.972;9.276;2024-03-22T02:43:18;0.40;;;0.40;;
1354;SDS011;671;48.972;9.276;2024-03-22T02:45:47;0.50;;;0.50;;
1354;SDS011;671;48.972;9.276;2024-03-22T02:48:14;0.43;;;0.43;;
1354;SDS011;671;48.972;9.276;2024-03-22T02:50:40;0.30;;;0.30;;
1354;SDS011;671;48.972;9.276;2024-03-22T02:53:07;0.40;;;0.40;;
1354;SDS011;671;48.972;9.276;2024-03-22T02:55:37;0.30;;;0.30;;
1354;SDS011;671;48.972;9.276;2024-03-22T02:58:05;0.40;;;0.40;;
1354;SDS011;671;48.972;9.276;2024-03-22T03:00:38;0.30;;;0.30;;
1354;SDS011;671;48.972;9.276;2024-03-22T03:03:05;0.40;;;0.40;;
1354;SDS011;671;48.972;9.276;2024-03-22T03:05:32;0.40;;;0.40;;
1354;SDS011;671;48.972;9.276;2024-03-22T03:07:59;0.40;;;0.40;;
1354;SDS011;671;48.972;9.276;2024-03-22T03:10:25;0.30;;;0.30;;
1354;SDS011;671;48.972;9.276;2024-03-22T03:12:54;0.40;;;0.40;;
1354;SDS011;671;48.972;9.276;2024-03-22T03:15:20;0.30;;;0.30;;
1354;SDS011;671;48.972;9.276;2024-03-22T03:17:47;0.30;;;0.30;;
1354;SDS011;671;48.972;9.276;2024-03-22T03:20:13;0.30;;;0.30;;
1354;SDS011;671;48.972;9.276;2024-03-22T03:22:41;0.30;;;0.30;;
1354;SDS011;671;48.972;9.276;2024-03-22T03:25:07;0.30;;;0.27;;
1354;SDS011;671;48.972;9.276;2024-03-22T03:27:34;0.30;;;0.30;;
1354;SDS011;671;48.972;9.276;2024-03-22T03:30:01;0.40;;;0.40;;
1354;SDS011;671;48.972;9.276;2024-03-22T03:32:28;0.30;;;0.27;;
1354;SDS011;671;48.972;9.276;2024-03-22T03:34:55;0.33;;;0.33;;
1354;SDS011;671;48.972;9.276;2024-03-22T03:37:21;0.43;;;0.43;;
1354;SDS011;671;48.972;9.276;2024-03-22T03:39:47;0.40;;;0.40;;
1354;SDS011;671;48.972;9.276;2024-03-22T03:42:14;0.30;;;0.30;;
1354;SDS011;671;48.972;9.276;2024-03-22T03:44:40;0.40;;;0.40;;
1354;SDS011;671;48.972;9.276;2024-03-22T03:47:07;0.30;;;0.30;;
1354;SDS011;671;48.972;9.276;2024-03-22T03:49:34;0.40;;;0.40;;
1354;SDS011;671;48.972;9.276;2024-03-22T03:52:01;0.40;;;0.40;;
1354;SDS011;671;48.972;9.276;2024-03-22T03:54:27;0.40;;;0.40;;
1354;SDS011;671;48.972;9.276;2024-03-22T03:56:54;0.30;;;0.30;;
1354;SDS011;671;48.972;9.276;2024-03-22T03:59:20;0.40;;;0.40;;
1354;SDS011;671;48.972;9.276;2024-03-22T04:01:47;0.40;;;0.40;;
1354;SDS011;671;48.972;9.276;2024-03-22T04:04:13;0.43;;;0.43;;
1354;SDS011;671;48.972;9.276;2024-03-22T04:06:40;0.40;;;0.40;;
1354;SDS011;671;48.972;9.276;2024-03-22T04:09:06;0.40;;;0.40;;
1354;SDS011;671;48.972;9.276;2024-03-22T04:11:33;0.40;;;0.40;;
1354;SDS011;671;48.972;9.276;2024-03-22T04:13:59;0.30;;;0.30;;
1354;SDS011;671;48.972;9.276;2024-03-22T04:16:26;0.40;;;0.40;;
1354;SDS011;671;48.972;9.276;2024-03-22T04:18:53;0.30;;;0.30;;
1354;SDS011;671;48.972;9.276;2024-03-22T04:21:19;0.50;;;0.50;;
1354;SDS011;671;48.972;9.276;2024-03-22T04:23:45;0.40;;;0.40;;
1354;SDS011;671;48.972;9.276;2024-03-22T04:26:12;0.30;;;0.30;;
1354;SDS011;671;48.972;9.276;2024-03-22T04:28:38;0.33;;;0.33;;
1354;SDS011;671;48.972;9.276;2024-03-22T04:31:06;0.40;;;0.40;;
1354;SDS011;671;48.972;9.276;2024-03-22T04:33:35;0.40;;;0.40;;
1354;SDS011;671;48.972;9.276;2024-03-22T04:36:02;0.50;;;0.50;;
1354;SDS011;671;48.972;9.276;2024-03-22T04:38:29;0.60;;;0.60;;
1354;SDS011;671;48.972;9.276;2024-03-22T04:40:56;0.50;;;0.50;;
1354;SDS011;671;48.972;9.276;2024-03-22T04:43:23;0.40;;;0.40;;
1354;SDS011;671;48.972;9.276;2024-03-22T04:45:50;0.50;;;0.50;;
1354;SDS011;671;48.972;9.276;2024-03-22T04:48:18;0.53;;;0.53;;
1354;SDS011;671;48.972;9.276;2024-03-22T04:50:50;0.40;;;0.40;;
1354;SDS011;671;48.972;9.276;2024-03-22T04:53:18;0.30;;;0.20;;
1354;SDS011;671;48.972;9.276;2024-03-22T04:55:48;0.40;;;0.40;;
1354;SDS011;671;48.972;9.276;2024-03-22T04:58:15;0.30;;;0.30;;
1354;SDS011;671;48.972;9.276;2024-03-22T05:00:46;0.40;;;0.40;;
1354;SDS011;671;48.972;9.276;2024-03-22T05:03:13;0.50;;;0.50;;
1354;SDS011;671;48.972;9.276;2024-03-22T05:05:40;0.40;;;0.40;;
1354;SDS011;671;48.972;9.276;2024-03-22T05:08:06;0.30;;;0.30;;
1354;SDS011;671;48.972;9.276;2024-03-22T05:10:34;0.43;;;0.43;;
1354;SDS011;671;48.972;9.276;2024-03-22T05:13:01;0.40;;;0.40;;
1354;SDS011;671;48.972;9.276;2024-03-22T05:15:27;0.30;;;0.30;;
1354;SDS011;671;48.972;9.276;2024-03-22T05:17:55;0.40;;;0.40;;
1354;SDS011;671;48.972;9.276;2024-03-22T05:20:22;0.50;;;0.50;;
1354;SDS011;671;48.972;9.276;2024-03-22T05:22:49;0.40;;;0.40;;
1354;SDS011;671;48.972;9.276;2024-03-22T05:25:16;0.40;;;0.40;;
1354;SDS011;671;48.972;9.276;2024-03-22T05:27:43;0.50;;;0.50;;
1354;SDS011;671;48.972;9.276;2024-03-22T05:30:11;0.33;;;0.33;;
1354;SDS011;671;48.972;9.276;2024-03-22T05:32:39;0.30;;;0.30;;
1354;SDS011;671;48.972;9.276;2024-03-22T05:35:08;0.47;;;0.47;;
1354;SDS011;671;48.972;9.276;2024-03-22T05:37:35;0.53;;;0.53;;
1354;SDS011;671;48.972;9.276;2024-03-22T05:40:02;0.50;;;0.50;;
1354;SDS011;671;48.972;9.276;2024-03-22T05:42:32;0.50;;;0.50;;
1354;SDS011;671;48.972;9.276;2024-03-22T05:44:58;0.60;;;0.60;;
1354;SDS011;671;48.972;9.276;2024-03-22T05:47:25;0.50;;;0.50;;
1354;SDS011;671;48.972;9.276;2024-03-22T05:49:52;0.50;;;0.50;;
1354;SDS011;671;48.972;9.276;2024-03-22T05:52:18;0.47;;;0.47;;
1354;SDS011;671;48.972;9.276;2024-03-22T05:54:45;0.70;;;0.70;;
1354;SDS011;671;48.972;9.276;2024-03-22T05:57:12;0.50;;;0.50;;
1354;SDS011;671;48.972;9.276;2024-03-22T05:59:38;0.40;;;0.30;;
1354;SDS011;671;48.972;9.276;2024-03-22T06:02:05;0.57;;;0.57;;
1354;SDS011;671;48.972;9.276;2024-03-22T06:04:31;0.57;;;0.57;;
1354;SDS011;671;48.972;9.276;2024-03-22T06:06:58;0.30;;;0.30;;
1354;SDS011;671;48.972;9.276;2024-03-22T06:09:26;0.47;;;0.47;;
1354;SDS011;671;48.972;9.276;2024-03-22T06:12:12;0.40;;;0.40;;
1354;SDS011;671;48.972;9.276;2024-03-22T06:14:39;0.50;;;0.50;;
1354;SDS011;671;48.972;9.276;2024-03-22T06:17:06;0.50;;;0.50;;
1354;SDS011;671;48.972;9.276;2024-03-22T06:19:33;0.40;;;0.40;;
1354;SDS011;671;48.972;9.276;2024-03-22T06:22:00;0.50;;;0.50;;
1354;SDS011;671;48.972;9.276;2024-03-22T06:24:27;0.40;;;0.40;;
1354;SDS011;671;48.972;9.276;2024-03-22T06:26:53;0.50;;;0.50;;
1354;SDS011;671;48.972;9.276;2024-03-22T06:29:20;0.40;;;0.40;;
1354;SDS011;671;48.972;9.276;2024-03-22T06:31:46;0.40;;;0.40;;
1354;SDS011;671;48.972;9.276;2024-03-22T06:34:13;0.40;;;0.40;;
1354;SDS011;671;48.972;9.276;2024-03-22T06:36:39;0.40;;;0.40;;
1354;SDS011;671;48.972;9.276;2024-03-22T06:39:06;0.47;;;0.47;;
1354;SDS011;671;48.972;9.276;2024-03-22T06:41:34;0.50;;;0.50;;
1354;SDS011;671;48.972;9.276;2024-03-22T06:44:00;0.50;;;0.50;;
1354;SDS011;671;48.972;9.276;2024-03-22T06:46:27;0.33;;;0.33;;
1354;SDS011;671;48.972;9.276;2024-03-22T06:48:54;0.40;;;0.40;;
1354;SDS011;671;48.972;9.276;2024-03-22T06:51:20;0.40;;;0.40;;
1354;SDS011;671;48.972;9.276;2024-03-22T06:53:47;0.37;;;0.37;;
1354;SDS011;671;48.972;9.276;2024-03-22T06:56:13;0.40;;;0.40;;
1354;SDS011;671;48.972;9.276;2024-03-22T06:58:40;0.30;;;0.30;;
1354;SDS011;671;48.972;9.276;2024-03-22T07:01:07;0.40;;;0.40;;
1354;SDS011;671;48.972;9.276;2024-03-22T07:03:33;0.47;;;0.47;;
1354;SDS011;671;48.972;9.276;2024-03-22T07:06:00;0.50;;;0.50;;
1354;SDS011;671;48.972;9.276;2024-03-22T07:08:26;0.40;;;0.40;;
1354;SDS011;671;48.972;9.276;2024-03-22T07:10:53;0.30;;;0.30;;
1354;SDS011;671;48.972;9.276;2024-03-22T07:13:20;0.50;;;0.50;;
1354;SDS011;671;48.972;9.276;2024-03-22T07:15:47;0.30;;;0.20;;
1354;SDS011;671;48.972;9.276;2024-03-22T07:18:15;0.40;;;0.40;;
1354;SDS011;671;48.972;9.276;2024-03-22T07:20:42;0.30;;;0.30;;
1354;SDS011;671;48.972;9.276;2024-03-22T07:23:08;0.40;;;0.40;;
1354;SDS011;671;48.972;9.276;2024-03-22T07:25:35;0.50;;;0.50;;
1354;SDS011;671;48.972;9.276;2024-03-22T07:28:01;0.50;;;0.50;;
1354;SDS011;671;48.972;9.276;2024-03-22T07:30:28;0.50;;;0.50;;
1354;SDS011;671;48.972;9.276;2024-03-22T07:32:54;0.50;;;0.50;;
1354;SDS011;671;48.972;9.276;2024-03-22T07:35:21;0.40;;;0.40;;
1354;SDS011;671;48.972;9.276;2024-03-22T07:37:47;0.60;;;0.60;;
1354;SDS011;671;48.972;9.276;2024-03-22T07:40:14;0.43;;;0.43;;
1354;SDS011;671;48.972;9.276;2024-03-22T07:42:40;0.40;;;0.40;;
1354;SDS011;671;48.972;9.276;2024-03-22T07:45:07;0.50;;;0.50;;
1354;SDS011;671;48.972;9.276;2024-03-22T07:47:34;0.40;;;0.40;;
1354;SDS011;671;48.972;9.276;2024-03-22T07:50:01;0.47;;;0.47;;
1354;SDS011;671;48.972;9.276;2024-03-22T07:52:27;0.40;;;0.40;;
1354;SDS011;671;48.972;9.276;2024-03-22T07:54:53;0.50;;;0.50;;
1354;SDS011;671;48.972;9.276;2024-03-22T07:57:20;0.50;;;0.50;;
1354;SDS011;671;48.972;9.276;2024-03-22T07:59:46;0.53;;;0.53;;
1354;SDS011;671;48.972;9.276;2024-03-22T08:02:13;0.50;;;0.50;;
1354;SDS011;671;48.972;9.276;2024-03-22T08:04:39;0.40;;;0.40;;
1354;SDS011;671;48.972;9.276;2024-03-22T08:07:06;0.30;;;0.30;;
1354;SDS011;671;48.972;9.276;2024-03-22T08:09:32;0.50;;;0.50;;
1354;SDS011;671;48.972;9.276;2024-03-22T08:11:59;0.43;;;0.43;;
1354;SDS011;671;48.972;9.276;2024-03-22T08:14:25;0.40;;;0.40;;
1354;SDS011;671;48.972;9.276;2024-03-22T08:16:52;0.50;;;0.50;;
1354;SDS011;671;48.972;9.276;2024-03-22T08:19:19;0.40;;;0.40;;
1354;SDS011;671;48.972;9.276;2024-03-22T08:21:45;0.50;;;0.50;;
1354;SDS011;671;48.972;9.276;2024-03-22T08:24:11;0.40;;;0.40;;
1354;SDS011;671;48.972;9.276;2024-03-22T08:26:38;0.40;;;0.40;;
1354;SDS011;671;48.972;9.276;2024-03-22T08:29:04;0.50;;;0.50;;
1354;SDS011;671;48.972;9.276;2024-03-22T08:31:31;0.40;;;0.40;;
1354;SDS011;671;48.972;9.276;2024-03-22T08:33:57;0.40;;;0.40;;
1354;SDS011;671;48.972;9.276;2024-03-22T08:36:24;0.50;;;0.50;;
1354;SDS011;671;48.972;9.276;2024-03-22T08:38:50;0.40;;;0.40;;
1354;SDS011;671;48.972;9.276;2024-03-22T08:41:17;0.30;;;0.30;;
1354;SDS011;671;48.972;9.276;2024-03-22T08:43:43;0.40;;;0.30;;
1354;SDS011;671;48.972;9.276;2024-03-22T08:46:11;0.40;;;0.40;;
1354;SDS011;671;48.972;9.276;2024-03-22T08:48:37;0.40;;;0.40;;
1354;SDS011;671;48.972;9.276;2024-03-22T08:51:04;0.47;;;0.47;;
1354;SDS011;671;48.972;9.276;2024-03-22T08:53:30;0.40;;;0.40;;
1354;SDS011;671;48.972;9.276;2024-03-22T08:55:57;0.40;;;0.40;;
1354;SDS011;671;48.972;9.276;2024-03-22T08:58:24;0.40;;;0.40;;
1354;SDS011;671;48.972;9.276;2024-03-22T09:00:50;0.40;;;0.40;;
1354;SDS011;671;48.972;9.276;2024-03-22T09:03:17;0.40;;;0.40;;
1354;SDS011;671;48.972;9.276;2024-03-22T09:05:44;0.33;;;0.33;;
1354;SDS011;671;48.972;9.276;2024-03-22T09:08:10;0.30;;;0.30;;
1354;SDS011;671;48.972;9.276;2024-03-22T09:10:36;0.40;;;0.40;;
1354;SDS011;671;48.972;9.276;2024-03-22T09:13:03;0.30;;;0.30;;
1354;SDS011;671;48.972;9.276;2024-03-22T09:15:29;0.30;;;0.30;;
1354;SDS011;671;48.972;9.276;2024-03-22T09:17:56;0.33;;;0.33;;
1354;SDS011;671;48.972;9.276;2024-03-22T09:20:23;0.30;;;0.30;;
1354;SDS011;671;48.972;9.276;2024-03-22T09:22:49;0.40;;;0.40;;
1354;SDS011;671;48.972;9.276;2024-03-22T09:25:16;0.30;;;0.30;;
1354;SDS011;671;48.972;9.276;2024-03-22T09:27:42;0.30;;;0.30;;
1354;SDS011;671;48.972;9.276;2024-03-22T09:30:09;0.30;;;0.30;;
1354;SDS011;671;48.972;9.276;2024-03-22T09:32:35;0.30;;;0.20;;
1354;SDS011;671;48.972;9.276;2024-03-22T09:35:02;0.30;;;0.20;;
1354;SDS011;671;48.972;9.276;2024-03-22T09:37:28;0.30;;;0.30;;
1354;SDS011;671;48.972;9.276;2024-03-22T09:39:55;0.30;;;0.30;;
1354;SDS011;671;48.972;9.276;2024-03-22T09:42:22;0.30;;;0.30;;
1354;SDS011;671;48.972;9.276;2024-03-22T09:44:51;0.30;;;0.20;;
1354;SDS011;671;48.972;9.276;2024-03-22T09:47:18;0.30;;;0.30;;
1354;SDS011;671;48.972;9.276;2024-03-22T09:49:46;0.30;;;0.30;;
1354;SDS011;671;48.972;9.276;2024-03-22T09:52:15;0.30;;;0.30;;
1354;SDS011;671;48.972;9.276;2024-03-22T09:54:45;0.30;;;0.30;;
1354;SDS011;671;48.972;9.276;2024-03-22T09:57:15;0.30;;;0.20;;
1354;SDS011;671;48.972;9.276;2024-03-22T09:59:42;0.30;;;0.30;;
1354;SDS011;671;48.972;9.276;2024-03-22T10:02:10;0.30;;;0.20;;
1354;SDS011;671;48.972;9.276;2024-03-22T10:04:41;0.30;;;0.30;;
1354;SDS011;671;48.972;9.276;2024-03-22T10:07:07;0.30;;;0.20;;
1354;SDS011;671;48.972;9.276;2024-03-22T10:09:36;0.30;;;0.20;;
1354;SDS011;671;48.972;9.276;2024-03-22T10:12:03;0.30;;;0.20;;
1354;SDS011;671;48.972;9.276;2024-03-22T10:14:30;0.30;;;0.30;;
1354;SDS011;671;48.972;9.276;2024-03-22T10:16:58;0.30;;;0.30;;
1354;SDS011;671;48.972;9.276;2024-03-22T10:19:24;0.30;;;0.30;;
1354;SDS011;671;48.972;9.276;2024-03-22T10:22:00;0.30;;;0.30;;
1354;SDS011;671;48.972;9.276;2024-03-22T10:24:30;0.30;;;0.30;;
1354;SDS011;671;48.972;9.276;2024-03-22T10:26:58;0.30;;;0.20;;
1354;SDS011;671;48.972;9.276;2024-03-22T10:29:24;0.30;;;0.20;;
1354;SDS011;671;48.972;9.276;2024-03-22T10:31:51;0.30;;;0.30;;
1354;SDS011;671;48.972;9.276;2024-03-22T10:34:20;0.30;;;0.20;;
1354;SDS011;671;48.972;9.276;2024-03-22T10:36:50;0.30;;;0.20;;
1354;SDS011;671;48.972;9.276;2024-03-22T10:39:17;0.30;;;0.30;;
1354;SDS011;671;48.972;9.276;2024-03-22T10:41:47;0.30;;;0.30;;
1354;SDS011;671;48.972;9.276;2024-03-22T10:44:14;0.30;;;0.20;;
1354;SDS011;671;48.972;9.276;2024-03-22T10:46:43;0.30;;;0.27;;
1354;SDS011;671;48.972;9.276;2024-03-22T10:49:18;0.30;;;0.20;;
1354;SDS011;671;48.972;9.276;2024-03-22T10:51:46;0.30;;;0.20;;
1354;SDS011;671;48.972;9.276;2024-03-22T10:54:40;0.30;;;0.20;;
1354;SDS011;671;48.972;9.276;2024-03-22T10:57:11;0.30;;;0.20;;
1354;SDS011;671;48.972;9.276;2024-03-22T10:59:41;0.30;;;0.20;;
1354;SDS011;671;48.972;9.276;2024-03-22T11:02:10;0.30;;;0.20;;
1354;SDS011;671;48.972;9.276;2024-03-22T11:04:37;0.30;;;0.20;;
1354;SDS011;671;48.972;9.276;2024-03-22T11:07:03;0.30;;;0.20;;
1354;SDS011;671;48.972;9.276;2024-03-22T11:09:30;0.30;;;0.20;;
1354;SDS011;671;48.972;9.276;2024-03-22T11:11:57;0.30;;;0.20;;
1354;SDS011;671;48.972;9.276;2024-03-22T11:14:25;0.30;;;0.20;;
1354;SDS011;671;48.972;9.276;2024-03-22T11:16:52;0.30;;;0.20;;
1354;SDS011;671;48.972;9.276;2024-03-22T11:19:18;0.30;;;0.20;;
1354;SDS011;671;48.972;9.276;2024-03-22T11:21:45;0.30;;;0.20;;
1354;SDS011;671;48.972;9.276;2024-03-22T11:24:12;0.30;;;0.20;;
1354;SDS011;671;48.972;9.276;2024-03-22T11:26:38;0.30;;;0.20;;
1354;SDS011;671;48.972;9.276;2024-03-22T11:29:04;0.30;;;0.20;;
1354;SDS011;671;48.972;9.276;2024-03-22T11:31:31;0.30;;;0.20;;
1354;SDS011;671;48.972;9.276;2024-03-22T11:33:58;0.30;;;0.20;;
1354;SDS011;671;48.972;9.276;2024-03-22T11:36:25;0.30;;;0.20;;
1354;SDS011;671;48.972;9.276;2024-03-22T11:38:52;0.30;;;0.20;;
1354;SDS011;671;48.972;9.276;2024-03-22T11:41:22;0.30;;;0.20;;
1354;SDS011;671;48.972;9.276;2024-03-22T11:43:53;0.30;;;0.20;;
1354;SDS011;671;48.972;9.276;2024-03-22T11:46:21;0.30;;;0.20;;
1354;SDS011;671;48.972;9.276;2024-03-22T11:48:51;0.30;;;0.20;;
1354;SDS011;671;48.972;9.276;2024-03-22T11:51:19;0.30;;;0.20;;
1354;SDS011;671;48.972;9.276;2024-03-22T11:53:49;0.30;;;0.20;;
1354;SDS011;671;48.972;9.276;2024-03-22T11:56:21;0.30;;;0.20;;
1354;SDS011;671;48.972;9.276;2024-03-22T11:58:48;0.30;;;0.20;;
1354;SDS011;671;48.972;9.276;2024-03-22T12:01:15;0.30;;;0.20;;
1354;SDS011;671;48.972;9.276;2024-03-22T12:03:45;0.30;;;0.20;;
1354;SDS011;671;48.972;9.276;2024-03-22T12:06:15;0.30;;;0.20;;
1354;SDS011;671;48.972;9.276;2024-03-22T12:08:41;0.30;;;0.20;;
1354;SDS011;671;48.972;9.276;2024-03-22T12:11:08;0.30;;;0.20;;
1354;SDS011;671;48.972;9.276;2024-03-22T12:13:36;0.30;;;0.20;;
1354;SDS011;671;48.972;9.276;2024-03-22T12:16:03;0.30;;;0.20;;
1354;SDS011;671;48.972;9.276;2024-03-22T12:18:30;0.30;;;0.20;;
1354;SDS011;671;48.972;9.276;2024-03-22T12:20:57;0.30;;;0.20;;
1354;SDS011;671;48.972;9.276;2024-03-22T12:23:24;0.30;;;0.20;;
1354;SDS011;671;48.972;9.276;2024-03-22T12:25:51;0.30;;;0.20;;
1354;SDS011;671;48.972;9.276;2024-03-22T12:28:20;0.30;;;0.20;;
1354;SDS011;671;48.972;9.276;2024-03-22T12:30:50;0.30;;;0.20;;
1354;SDS011;671;48.972;9.276;2024-03-22T12:33:17;0.30;;;0.20;;
1354;SDS011;671;48.972;9.276;2024-03-22T12:35:43;0.30;;;0.20;;
1354;SDS011;671;48.972;9.276;2024-03-22T12:38:10;0.30;;;0.20;;
1354;SDS011;671;48.972;9.276;2024-03-22T12:40:37;0.30;;;0.20;;
1354;SDS011;671;48.972;9.276;2024-03-22T12:43:04;0.30;;;0.20;;
1354;SDS011;671;48.972;9.276;2024-03-22T12:45:30;0.30;;;0.20;;
1354;SDS011;671;48.972;9.276;2024-03-22T12:47:58;0.30;;;0.20;;
1354;SDS011;671;48.972;9.276;2024-03-22T12:50:26;0.30;;;0.20;;
1354;SDS011;671;48.972;9.276;2024-03-22T12:52:52;0.30;;;0.20;;
1354;SDS011;671;48.972;9.276;2024-03-22T12:55:19;0.30;;;0.20;;
1354;SDS011;671;48.972;9.276;2024-03-22T12:57:45;0.30;;;0.20;;
1354;SDS011;671;48.972;9.276;2024-03-22T13:00:12;0.30;;;0.20;;
1354;SDS011;671;48.972;9.276;2024-03-22T13:02:39;0.30;;;0.20;;
1354;SDS011;671;48.972;9.276;2024-03-22T13:05:06;0.30;;;0.20;;
1354;SDS011;671;48.972;9.276;2024-03-22T13:07:33;0.30;;;0.20;;
1354;SDS011;671;48.972;9.276;2024-03-22T13:10:00;0.30;;;0.20;;
1354;SDS011;671;48.972;9.276;2024-03-22T13:12:27;0.30;;;0.20;;
1354;SDS011;671;48.972;9.276;2024-03-22T13:14:57;0.30;;;0.20;;
1354;SDS011;671;48.972;9.276;2024-03-22T13:17:23;0.30;;;0.20;;
1354;SDS011;671;48.972;9.276;2024-03-22T13:19:50;0.30;;;0.20;;
1354;SDS011;671;48.972;9.276;2024-03-22T13:22:16;0.30;;;0.20;;
1354;SDS011;671;48.972;9.276;2024-03-22T13:24:44;0.30;;;0.20;;
1354;SDS011;671;48.972;9.276;2024-03-22T13:27:11;0.30;;;0.20;;
1354;SDS011;671;48.972;9.276;2024-03-22T13:29:39;0.30;;;0.20;;
1354;SDS011;671;48.972;9.276;2024-03-22T13:32:05;0.30;;;0.20;;
1354;SDS011;671;48.972;9.276;2024-03-22T13:34:36;0.30;;;0.20;;
1354;SDS011;671;48.972;9.276;2024-03-22T13:37:03;0.30;;;0.20;;
1354;SDS011;671;48.972;9.276;2024-03-22T13:39:29;0.30;;;0.20;;
1354;SDS011;671;48.972;9.276;2024-03-22T13:41:59;0.30;;;0.20;;
1354;SDS011;671;48.972;9.276;2024-03-22T13:44:27;0.30;;;0.20;;
1354;SDS011;671;48.972;9.276;2024-03-22T13:46:55;0.30;;;0.20;;
1354;SDS011;671;48.972;9.276;2024-03-22T13:49:21;0.30;;;0.20;;
1354;SDS011;671;48.972;9.276;2024-03-22T13:51:47;0.30;;;0.20;;
1354;SDS011;671;48.972;9.276;2024-03-22T13:54:14;0.30;;;0.20;;
1354;SDS011;671;48.972;9.276;2024-03-22T13:56:40;0.30;;;0.20;;
1354;SDS011;671;48.972;9.276;2024-03-22T13:59:07;0.30;;;0.20;;
1354;SDS011;671;48.972;9.276;2024-03-22T14:01:35;0.30;;;0.20;;
1354;SDS011;671;48.972;9.276;2024-03-22T14:04:02;0.30;;;0.20;;
1354;SDS011;671;48.972;9.276;2024-03-22T14:06:30;0.30;;;0.20;;
1354;SDS011;671;48.972;9.276;2024-03-22T14:08:57;0.30;;;0.20;;
1354;SDS011;671;48.972;9.276;2024-03-22T14:11:33;0.30;;;0.20;;
1354;SDS011;671;48.972;9.276;2024-03-22T14:13:59;0.30;;;0.20;;
1354;SDS011;671;48.972;9.276;2024-03-22T14:16:26;0.30;;;0.20;;
1354;SDS011;671;48.972;9.276;2024-03-22T14:18:52;0.30;;;0.20;;
1354;SDS011;671;48.972;9.276;2024-03-22T14:21:19;0.30;;;0.30;;
1354;SDS011;671;48.972;9.276;2024-03-22T14:23:46;0.30;;;0.20;;
1354;SDS011;671;48.972;9.276;2024-03-22T14:26:13;0.30;;;0.20;;
1354;SDS011;671;48.972;9.276;2024-03-22T14:28:40;0.30;;;0.20;;
1354;SDS011;671;48.972;9.276;2024-03-22T14:31:06;0.30;;;0.20;;
1354;SDS011;671;48.972;9.276;2024-03-22T14:33:37;0.30;;;0.20;;
1354;SDS011;671;48.972;9.276;2024-03-22T14:36:04;0.30;;;0.20;;
1354;SDS011;671;48.972;9.276;2024-03-22T14:38:32;0.30;;;0.20;;
1354;SDS011;671;48.972;9.276;2024-03-22T14:40:59;0.30;;;0.20;;
1354;SDS011;671;48.972;9.276;2024-03-22T14:43:26;0.30;;;0.20;;
1354;SDS011;671;48.972;9.276;2024-03-22T14:45:53;0.30;;;0.20;;
1354;SDS011;671;48.972;9.276;2024-03-22T14:48:20;0.30;;;0.20;;
1354;SDS011;671;48.972;9.276;2024-03-22T14:50:47;0.30;;;0.20;;
1354;SDS011;671;48.972;9.276;2024-03-22T14:53:15;0.30;;;0.20;;
1354;SDS011;671;48.972;9.276;2024-03-22T14:55:53;0.30;;;0.20;;
1354;SDS011;671;48.972;9.276;2024-03-22T14:58:26;0.30;;;0.20;;
1354;SDS011;671;48.972;9.276;2024-03-22T15:00:53;0.30;;;0.20;;
1354;SDS011;671;48.972;9.276;2024-03-22T15:03:21;0.30;;;0.20;;
1354;SDS011;671;48.972;9.276;2024-03-22T15:05:51;0.30;;;0.20;;
1354;SDS011;671;48.972;9.276;2024-03-22T15:08:19;0.30;;;0.20;;
1354;SDS011;671;48.972;9.276;2024-03-22T15:10:47;0.30;;;0.20;;
1354;SDS011;671;48.972;9.276;2024-03-22T15:13:14;0.30;;;0.20;;
1354;SDS011;671;48.972;9.276;2024-03-22T15:15:42;0.30;;;0.20;;
1354;SDS011;671;48.972;9.276;2024-03-22T15:18:09;0.30;;;0.27;;
1354;SDS011;671;48.972;9.276;2024-03-22T15:20:37;0.30;;;0.20;;
1354;SDS011;671;48.972;9.276;2024-03-22T15:23:03;0.30;;;0.20;;
1354;SDS011;671;48.972;9.276;2024-03-22T15:25:29;0.30;;;0.20;;
1354;SDS011;671;48.972;9.276;2024-03-22T15:27:56;0.30;;;0.20;;
1354;SDS011;671;48.972;9.276;2024-03-22T15:30:23;0.30;;;0.20;;